Terminal Aerodrome Forecast
Issued by NWS

Home | Current Version | Previous Version | Text Only | Print | Product List | Glossary On
Versions: 1 2 3 4 5 6 7 8 9 10 11 12
000
FTPA31 PHFO 250539
TAFHKO
TAF
PHKO 250539Z 2506/2606 25005KT P6SM VCSH SCT025 BKN050
     FM250800 06005KT P6SM FEW025 BKN050
     FM251400 VRB03KT P6SM FEW025
     FM252000 21010KT P6SM SKC
     FM260300 25010KT P6SM BKN050=

USA.gov is the U.S. government's official web portal to all federal, state and local government web resources and services.